sensor_id;sensor_type;location;lat;lon;timestamp;pressure;altitude;pressure_sealevel;temperature;humidity
59329;BME280;45100;46.926;7.452;2023-08-12T00:00:22;95649.52;;;22.23;64.94
59329;BME280;45100;46.926;7.452;2023-08-12T00:02:52;95648.16;;;22.21;65.14
59329;BME280;45100;46.926;7.452;2023-08-12T00:05:22;95641.23;;;22.19;65.31
59329;BME280;45100;46.926;7.452;2023-08-12T00:07:53;95641.38;;;22.13;65.67
59329;BME280;45100;46.926;7.452;2023-08-12T00:10:24;95644.63;;;22.08;65.94
59329;BME280;45100;46.926;7.452;2023-08-12T00:12:55;95641.48;;;22.04;66.10
59329;BME280;45100;46.926;7.452;2023-08-12T00:15:26;95647.44;;;22.03;66.19
59329;BME280;45100;46.926;7.452;2023-08-12T00:17:57;95646.73;;;22.00;66.38
59329;BME280;45100;46.926;7.452;2023-08-12T00:20:27;95642.77;;;21.99;66.37
59329;BME280;45100;46.926;7.452;2023-08-12T00:22:56;95643.38;;;21.98;66.51
59329;BME280;45100;46.926;7.452;2023-08-12T00:25:27;95641.39;;;21.98;66.59
59329;BME280;45100;46.926;7.452;2023-08-12T00:27:58;95641.12;;;21.98;66.64
59329;BME280;45100;46.926;7.452;2023-08-12T00:30:29;95639.09;;;21.98;66.76
59329;BME280;45100;46.926;7.452;2023-08-12T00:33:00;95632.19;;;21.97;66.80
59329;BME280;45100;46.926;7.452;2023-08-12T00:35:30;95631.53;;;21.98;67.03
59329;BME280;45100;46.926;7.452;2023-08-12T00:38:01;95626.19;;;21.96;67.22
59329;BME280;45100;46.926;7.452;2023-08-12T00:40:32;95627.77;;;21.91;67.50
59329;BME280;45100;46.926;7.452;2023-08-12T00:43:04;95626.71;;;21.82;68.05
59329;BME280;45100;46.926;7.452;2023-08-12T00:45:33;95625.14;;;21.71;68.54
59329;BME280;45100;46.926;7.452;2023-08-12T00:48:05;95622.17;;;21.62;69.01
59329;BME280;45100;46.926;7.452;2023-08-12T00:50:36;95618.15;;;21.54;69.43
59329;BME280;45100;46.926;7.452;2023-08-12T00:53:08;95623.11;;;21.50;69.78
59329;BME280;45100;46.926;7.452;2023-08-12T00:55:36;95623.83;;;21.49;69.91
59329;BME280;45100;46.926;7.452;2023-08-12T00:58:06;95628.81;;;21.49;69.64
59329;BME280;45100;46.926;7.452;2023-08-12T01:00:37;95628.62;;;21.47;69.63
59329;BME280;45100;46.926;7.452;2023-08-12T01:03:07;95633.80;;;21.45;69.68
59329;BME280;45100;46.926;7.452;2023-08-12T01:05:38;95634.27;;;21.45;69.53
59329;BME280;45100;46.926;7.452;2023-08-12T01:08:09;95632.98;;;21.45;69.44
59329;BME280;45100;46.926;7.452;2023-08-12T01:10:47;95627.12;;;21.43;69.47
59329;BME280;45100;46.926;7.452;2023-08-12T01:13:20;95627.75;;;21.41;69.73
59329;BME280;45100;46.926;7.452;2023-08-12T01:15:43;95621.97;;;21.37;70.08
59329;BME280;45100;46.926;7.452;2023-08-12T01:18:12;95620.41;;;21.36;70.37
59329;BME280;45100;46.926;7.452;2023-08-12T01:20:42;95619.78;;;21.34;70.43
59329;BME280;45100;46.926;7.452;2023-08-12T01:23:14;95618.05;;;21.31;70.58
59329;BME280;45100;46.926;7.452;2023-08-12T01:25:43;95619.45;;;21.28;70.80
59329;BME280;45100;46.926;7.452;2023-08-12T01:28:13;95617.34;;;21.26;70.90
59329;BME280;45100;46.926;7.452;2023-08-12T01:33:25;95613.43;;;21.21;70.98
59329;BME280;45100;46.926;7.452;2023-08-12T01:35:52;95611.43;;;21.19;70.97
59329;BME280;45100;46.926;7.452;2023-08-12T01:38:15;95611.34;;;21.16;71.14
59329;BME280;45100;46.926;7.452;2023-08-12T01:40:47;95611.56;;;21.12;71.26
59329;BME280;45100;46.926;7.452;2023-08-12T01:43:17;95612.41;;;21.08;71.47
59329;BME280;45100;46.926;7.452;2023-08-12T01:45:47;95607.56;;;21.05;71.54
59329;BME280;45100;46.926;7.452;2023-08-12T01:48:23;95604.11;;;21.05;71.38
59329;BME280;45100;46.926;7.452;2023-08-12T01:50:48;95599.54;;;21.03;71.46
59329;BME280;45100;46.926;7.452;2023-08-12T01:53:18;95601.56;;;21.00;71.65
59329;BME280;45100;46.926;7.452;2023-08-12T01:55:50;95600.14;;;20.97;71.86
59329;BME280;45100;46.926;7.452;2023-08-12T01:58:20;95595.42;;;20.95;72.04
59329;BME280;45100;46.926;7.452;2023-08-12T02:00:51;95597.97;;;20.93;72.37
59329;BME280;45100;46.926;7.452;2023-08-12T02:03:22;95595.04;;;20.89;72.71
59329;BME280;45100;46.926;7.452;2023-08-12T02:05:51;95591.70;;;20.88;72.92
59329;BME280;45100;46.926;7.452;2023-08-12T02:08:22;95591.23;;;20.88;73.01
59329;BME280;45100;46.926;7.452;2023-08-12T02:10:53;95593.78;;;20.89;73.01
59329;BME280;45100;46.926;7.452;2023-08-12T02:13:24;95588.55;;;20.92;72.89
59329;BME280;45100;46.926;7.452;2023-08-12T02:15:54;95588.42;;;20.96;72.63
59329;BME280;45100;46.926;7.452;2023-08-12T02:18:25;95585.36;;;21.01;72.47
59329;BME280;45100;46.926;7.452;2023-08-12T02:23:29;95596.23;;;21.05;71.69
59329;BME280;45100;46.926;7.452;2023-08-12T02:25:59;95598.44;;;21.00;71.57
59329;BME280;45100;46.926;7.452;2023-08-12T02:28:30;95606.66;;;20.94;71.87
59329;BME280;45100;46.926;7.452;2023-08-12T02:31:01;95607.30;;;20.90;72.05
59329;BME280;45100;46.926;7.452;2023-08-12T02:33:31;95610.48;;;20.89;72.00
59329;BME280;45100;46.926;7.452;2023-08-12T02:36:02;95609.93;;;20.89;72.02
59329;BME280;45100;46.926;7.452;2023-08-12T02:38:32;95612.78;;;20.91;72.01
59329;BME280;45100;46.926;7.452;2023-08-12T02:41:03;95614.92;;;20.96;71.84
59329;BME280;45100;46.926;7.452;2023-08-12T02:43:34;95613.94;;;21.00;71.70
59329;BME280;45100;46.926;7.452;2023-08-12T02:46:05;95610.38;;;21.03;71.55
59329;BME280;45100;46.926;7.452;2023-08-12T02:48:35;95617.25;;;21.05;71.49
59329;BME280;45100;46.926;7.452;2023-08-12T02:51:06;95611.83;;;21.05;71.42
59329;BME280;45100;46.926;7.452;2023-08-12T02:53:37;95613.86;;;21.06;71.44
59329;BME280;45100;46.926;7.452;2023-08-12T02:56:08;95612.08;;;21.07;71.41
59329;BME280;45100;46.926;7.452;2023-08-12T02:58:38;95611.92;;;21.08;71.43
59329;BME280;45100;46.926;7.452;2023-08-12T03:01:09;95608.44;;;21.10;71.21
59329;BME280;45100;46.926;7.452;2023-08-12T03:03:40;95608.94;;;21.12;70.87
59329;BME280;45100;46.926;7.452;2023-08-12T03:06:11;95601.84;;;21.14;70.75
59329;BME280;45100;46.926;7.452;2023-08-12T03:08:42;95601.98;;;21.15;70.36
59329;BME280;45100;46.926;7.452;2023-08-12T03:11:12;95604.83;;;21.17;70.16
59329;BME280;45100;46.926;7.452;2023-08-12T03:13:43;95604.50;;;21.17;70.05
59329;BME280;45100;46.926;7.452;2023-08-12T03:16:16;95604.06;;;21.18;69.84
59329;BME280;45100;46.926;7.452;2023-08-12T03:18:44;95605.32;;;21.17;69.81
59329;BME280;45100;46.926;7.452;2023-08-12T03:21:15;95601.84;;;21.14;69.76
59329;BME280;45100;46.926;7.452;2023-08-12T03:23:46;95601.34;;;21.12;70.04
59329;BME280;45100;46.926;7.452;2023-08-12T03:26:17;95596.39;;;21.10;70.20
59329;BME280;45100;46.926;7.452;2023-08-12T03:28:47;95598.50;;;21.07;70.71
59329;BME280;45100;46.926;7.452;2023-08-12T03:31:17;95599.87;;;21.03;71.46
59329;BME280;45100;46.926;7.452;2023-08-12T03:33:48;95597.38;;;20.99;71.59
59329;BME280;45100;46.926;7.452;2023-08-12T03:36:19;95600.03;;;20.95;71.38
59329;BME280;45100;46.926;7.452;2023-08-12T03:38:50;95601.77;;;20.91;71.66
59329;BME280;45100;46.926;7.452;2023-08-12T03:41:21;95605.13;;;20.87;71.87
59329;BME280;45100;46.926;7.452;2023-08-12T03:43:51;95601.88;;;20.82;72.30
59329;BME280;45100;46.926;7.452;2023-08-12T03:46:22;95603.59;;;20.79;72.52
59329;BME280;45100;46.926;7.452;2023-08-12T03:48:53;95603.51;;;20.77;72.25
59329;BME280;45100;46.926;7.452;2023-08-12T03:51:24;95604.82;;;20.77;72.25
59329;BME280;45100;46.926;7.452;2023-08-12T03:53:54;95602.19;;;20.76;72.55
59329;BME280;45100;46.926;7.452;2023-08-12T03:56:25;95605.45;;;20.74;72.80
59329;BME280;45100;46.926;7.452;2023-08-12T03:58:56;95609.98;;;20.73;72.94
59329;BME280;45100;46.926;7.452;2023-08-12T04:01:27;95613.22;;;20.73;73.09
59329;BME280;45100;46.926;7.452;2023-08-12T04:03:58;95606.87;;;20.75;73.06
59329;BME280;45100;46.926;7.452;2023-08-12T04:06:29;95604.27;;;20.76;72.98
59329;BME280;45100;46.926;7.452;2023-08-12T04:09:00;95604.24;;;20.75;73.08
59329;BME280;45100;46.926;7.452;2023-08-12T04:11:30;95603.61;;;20.73;73.28
59329;BME280;45100;46.926;7.452;2023-08-12T04:14:01;95605.25;;;20.71;73.40
59329;BME280;45100;46.926;7.452;2023-08-12T04:16:32;95607.98;;;20.71;73.44
59329;BME280;45100;46.926;7.452;2023-08-12T04:19:03;95607.66;;;20.71;73.33
59329;BME280;45100;46.926;7.452;2023-08-12T04:21:33;95606.61;;;20.70;73.25
59329;BME280;45100;46.926;7.452;2023-08-12T04:24:04;95604.92;;;20.72;73.20
59329;BME280;45100;46.926;7.452;2023-08-12T04:26:34;95604.02;;;20.73;73.18
59329;BME280;45100;46.926;7.452;2023-08-12T04:29:05;95601.89;;;20.74;73.14
59329;BME280;45100;46.926;7.452;2023-08-12T04:31:35;95602.19;;;20.76;72.97
59329;BME280;45100;46.926;7.452;2023-08-12T04:34:06;95600.00;;;20.76;72.83
59329;BME280;45100;46.926;7.452;2023-08-12T04:36:37;95598.97;;;20.77;72.90
59329;BME280;45100;46.926;7.452;2023-08-12T04:39:08;95601.09;;;20.78;72.97
59329;BME280;45100;46.926;7.452;2023-08-12T04:41:39;95603.78;;;20.78;72.99
59329;BME280;45100;46.926;7.452;2023-08-12T04:44:10;95605.59;;;20.77;72.99
59329;BME280;45100;46.926;7.452;2023-08-12T04:46:41;95606.46;;;20.76;73.00
59329;BME280;45100;46.926;7.452;2023-08-12T04:49:11;95603.70;;;20.74;73.03
59329;BME280;45100;46.926;7.452;2023-08-12T04:51:41;95603.34;;;20.76;72.84
59329;BME280;45100;46.926;7.452;2023-08-12T04:54:11;95604.20;;;20.79;72.93
59329;BME280;45100;46.926;7.452;2023-08-12T04:56:42;95607.02;;;20.84;72.91
59329;BME280;45100;46.926;7.452;2023-08-12T04:59:13;95605.69;;;20.88;72.75
59329;BME280;45100;46.926;7.452;2023-08-12T05:01:44;95605.38;;;20.90;72.59
59329;BME280;45100;46.926;7.452;2023-08-12T05:04:15;95605.03;;;20.93;72.45
59329;BME280;45100;46.926;7.452;2023-08-12T05:06:46;95608.67;;;20.94;72.58
59329;BME280;45100;46.926;7.452;2023-08-12T05:09:16;95607.31;;;20.96;72.74
59329;BME280;45100;46.926;7.452;2023-08-12T05:11:47;95605.64;;;20.97;72.99
59329;BME280;45100;46.926;7.452;2023-08-12T05:14:17;95603.06;;;20.99;73.01
59329;BME280;45100;46.926;7.452;2023-08-12T05:16:48;95602.63;;;21.00;73.12
59329;BME280;45100;46.926;7.452;2023-08-12T05:19:20;95606.41;;;20.99;73.23
59329;BME280;45100;46.926;7.452;2023-08-12T05:21:49;95604.33;;;20.97;73.40
59329;BME280;45100;46.926;7.452;2023-08-12T05:24:20;95600.35;;;20.94;73.39
59329;BME280;45100;46.926;7.452;2023-08-12T05:26:51;95600.30;;;20.91;73.61
59329;BME280;45100;46.926;7.452;2023-08-12T05:29:22;95603.20;;;20.88;73.66
59329;BME280;45100;46.926;7.452;2023-08-12T05:31:53;95608.12;;;20.90;73.65
59329;BME280;45100;46.926;7.452;2023-08-12T05:34:23;95608.98;;;20.93;73.67
59329;BME280;45100;46.926;7.452;2023-08-12T05:36:53;95606.46;;;20.99;73.47
59329;BME280;45100;46.926;7.452;2023-08-12T05:39:24;95600.88;;;21.04;73.35
59329;BME280;45100;46.926;7.452;2023-08-12T05:41:55;95594.17;;;21.08;73.37
59329;BME280;45100;46.926;7.452;2023-08-12T05:46:59;95596.75;;;21.20;73.27
59329;BME280;45100;46.926;7.452;2023-08-12T05:49:28;95599.38;;;21.27;72.96
59329;BME280;45100;46.926;7.452;2023-08-12T05:51:59;95592.63;;;21.33;72.65
59329;BME280;45100;46.926;7.452;2023-08-12T05:54:30;95595.30;;;21.36;72.69
59329;BME280;45100;46.926;7.452;2023-08-12T05:57:01;95602.95;;;21.43;72.70
59329;BME280;45100;46.926;7.452;2023-08-12T05:59:31;95602.29;;;21.51;72.16
59329;BME280;45100;46.926;7.452;2023-08-12T06:02:02;95607.45;;;21.60;71.55
59329;BME280;45100;46.926;7.452;2023-08-12T06:04:33;95613.59;;;21.65;71.44
59329;BME280;45100;46.926;7.452;2023-08-12T06:07:04;95611.83;;;21.70;71.52
59329;BME280;45100;46.926;7.452;2023-08-12T06:09:35;95603.64;;;21.76;71.60
59329;BME280;45100;46.926;7.452;2023-08-12T06:12:06;95601.59;;;21.83;71.38
59329;BME280;45100;46.926;7.452;2023-08-12T06:14:37;95599.95;;;21.91;71.24
59329;BME280;45100;46.926;7.452;2023-08-12T06:17:06;95602.56;;;21.99;71.02
59329;BME280;45100;46.926;7.452;2023-08-12T06:19:37;95605.66;;;22.09;70.65
59329;BME280;45100;46.926;7.452;2023-08-12T06:22:08;95605.31;;;22.21;70.19
59329;BME280;45100;46.926;7.452;2023-08-12T06:24:38;95606.05;;;22.27;70.00
59329;BME280;45100;46.926;7.452;2023-08-12T06:27:09;95608.80;;;22.33;69.94
59329;BME280;45100;46.926;7.452;2023-08-12T06:29:40;95607.17;;;22.36;70.00
59329;BME280;45100;46.926;7.452;2023-08-12T06:32:15;95606.25;;;22.34;70.00
59329;BME280;45100;46.926;7.452;2023-08-12T06:34:42;95601.12;;;22.27;70.76
59329;BME280;45100;46.926;7.452;2023-08-12T06:37:12;95596.94;;;22.17;71.38
59329;BME280;45100;46.926;7.452;2023-08-12T06:39:43;95602.98;;;22.05;71.85
59329;BME280;45100;46.926;7.452;2023-08-12T06:42:14;95603.83;;;21.97;72.45
59329;BME280;45100;46.926;7.452;2023-08-12T06:44:44;95602.31;;;21.93;72.80
59329;BME280;45100;46.926;7.452;2023-08-12T06:47:14;95604.23;;;21.92;73.00
59329;BME280;45100;46.926;7.452;2023-08-12T06:49:45;95599.55;;;21.90;73.29
59329;BME280;45100;46.926;7.452;2023-08-12T06:52:17;95598.92;;;21.87;73.83
59329;BME280;45100;46.926;7.452;2023-08-12T06:54:47;95599.05;;;21.85;74.34
59329;BME280;45100;46.926;7.452;2023-08-12T06:57:18;95608.05;;;21.88;74.23
59329;BME280;45100;46.926;7.452;2023-08-12T06:59:48;95613.52;;;21.96;74.16
59329;BME280;45100;46.926;7.452;2023-08-12T07:02:19;95614.75;;;22.06;73.60
59329;BME280;45100;46.926;7.452;2023-08-12T07:04:50;95613.62;;;22.14;73.13
59329;BME280;45100;46.926;7.452;2023-08-12T07:07:21;95622.38;;;22.22;72.92
59329;BME280;45100;46.926;7.452;2023-08-12T07:09:52;95624.17;;;22.31;72.82
59329;BME280;45100;46.926;7.452;2023-08-12T07:12:22;95633.27;;;22.40;72.44
59329;BME280;45100;46.926;7.452;2023-08-12T07:14:53;95637.77;;;22.52;71.93
59329;BME280;45100;46.926;7.452;2023-08-12T07:17:24;95643.15;;;22.69;71.35
59329;BME280;45100;46.926;7.452;2023-08-12T07:19:55;95643.50;;;22.86;70.37
59329;BME280;45100;46.926;7.452;2023-08-12T07:22:26;95643.94;;;22.99;69.85
59329;BME280;45100;46.926;7.452;2023-08-12T07:24:56;95647.00;;;23.09;69.28
59329;BME280;45100;46.926;7.452;2023-08-12T07:27:26;95647.83;;;23.16;69.12
59329;BME280;45100;46.926;7.452;2023-08-12T07:29:57;95652.80;;;23.24;68.94
59329;BME280;45100;46.926;7.452;2023-08-12T07:32:28;95658.41;;;23.31;68.80
59329;BME280;45100;46.926;7.452;2023-08-12T07:34:59;95658.16;;;23.39;68.65
59329;BME280;45100;46.926;7.452;2023-08-12T07:37:29;95652.27;;;23.43;68.44
59329;BME280;45100;46.926;7.452;2023-08-12T07:40:00;95646.56;;;23.42;68.65
59329;BME280;45100;46.926;7.452;2023-08-12T07:42:31;95641.64;;;23.42;68.74
59329;BME280;45100;46.926;7.452;2023-08-12T07:45:02;95634.79;;;23.47;68.95
59329;BME280;45100;46.926;7.452;2023-08-12T07:47:32;95640.56;;;23.62;68.49
59329;BME280;45100;46.926;7.452;2023-08-12T07:50:03;95643.22;;;23.81;67.64
59329;BME280;45100;46.926;7.452;2023-08-12T07:52:33;95641.12;;;23.95;67.17
59329;BME280;45100;46.926;7.452;2023-08-12T07:55:04;95645.12;;;24.05;66.84
59329;BME280;45100;46.926;7.452;2023-08-12T07:57:34;95657.94;;;24.10;66.70
59329;BME280;45100;46.926;7.452;2023-08-12T08:00:06;95664.27;;;24.13;66.36
59329;BME280;45100;46.926;7.452;2023-08-12T08:02:35;95669.99;;;24.13;66.63
59329;BME280;45100;46.926;7.452;2023-08-12T08:05:07;95685.39;;;24.08;67.18
59329;BME280;45100;46.926;7.452;2023-08-12T08:07:36;95695.65;;;24.03;68.18
59329;BME280;45100;46.926;7.452;2023-08-12T08:10:08;95703.80;;;23.93;69.69
59329;BME280;45100;46.926;7.452;2023-08-12T08:12:38;95710.17;;;23.79;70.27
59329;BME280;45100;46.926;7.452;2023-08-12T08:15:09;95704.47;;;23.61;72.13
59329;BME280;45100;46.926;7.452;2023-08-12T08:17:40;95692.06;;;23.37;71.72
59329;BME280;45100;46.926;7.452;2023-08-12T08:20:11;95701.56;;;22.99;71.56
59329;BME280;45100;46.926;7.452;2023-08-12T08:22:41;95698.58;;;22.61;76.95
59329;BME280;45100;46.926;7.452;2023-08-12T08:25:12;95680.98;;;22.34;77.23
59329;BME280;45100;46.926;7.452;2023-08-12T08:27:43;95686.55;;;22.16;79.17
59329;BME280;45100;46.926;7.452;2023-08-12T08:30:13;95683.94;;;22.04;80.83
59329;BME280;45100;46.926;7.452;2023-08-12T08:32:43;95691.97;;;21.91;81.89
59329;BME280;45100;46.926;7.452;2023-08-12T08:35:14;95679.92;;;21.79;83.19
59329;BME280;45100;46.926;7.452;2023-08-12T08:37:44;95679.44;;;21.67;83.54
59329;BME280;45100;46.926;7.452;2023-08-12T08:42:52;95653.48;;;21.49;84.47
59329;BME280;45100;46.926;7.452;2023-08-12T08:45:18;95657.31;;;21.45;84.87
59329;BME280;45100;46.926;7.452;2023-08-12T08:47:48;95668.84;;;21.42;85.76
59329;BME280;45100;46.926;7.452;2023-08-12T08:50:19;95674.70;;;21.42;85.54
59329;BME280;45100;46.926;7.452;2023-08-12T08:52:51;95679.69;;;21.41;86.36
59329;BME280;45100;46.926;7.452;2023-08-12T08:55:20;95678.67;;;21.35;87.60
59329;BME280;45100;46.926;7.452;2023-08-12T08:57:51;95670.18;;;21.30;89.15
59329;BME280;45100;46.926;7.452;2023-08-12T09:00:21;95667.74;;;21.33;89.76
59329;BME280;45100;46.926;7.452;2023-08-12T09:02:53;95673.61;;;21.41;89.82
59329;BME280;45100;46.926;7.452;2023-08-12T09:05:23;95678.84;;;21.50;89.82
59329;BME280;45100;46.926;7.452;2023-08-12T09:07:53;95678.19;;;21.61;89.97
59329;BME280;45100;46.926;7.452;2023-08-12T09:10:26;95686.76;;;21.70;89.61
59329;BME280;45100;46.926;7.452;2023-08-12T09:12:55;95693.22;;;21.78;89.35
59329;BME280;45100;46.926;7.452;2023-08-12T09:15:25;95700.73;;;21.82;89.33
59329;BME280;45100;46.926;7.452;2023-08-12T09:17:56;95702.37;;;21.84;89.04
59329;BME280;45100;46.926;7.452;2023-08-12T09:20:26;95706.48;;;21.89;89.04
59329;BME280;45100;46.926;7.452;2023-08-12T09:22:58;95721.91;;;21.98;89.46
59329;BME280;45100;46.926;7.452;2023-08-12T09:25:27;95728.53;;;22.04;89.77
59329;BME280;45100;46.926;7.452;2023-08-12T09:28:00;95731.57;;;22.07;90.07
59329;BME280;45100;46.926;7.452;2023-08-12T09:30:31;95735.73;;;22.08;91.04
59329;BME280;45100;46.926;7.452;2023-08-12T09:32:59;95739.47;;;22.07;91.29
59329;BME280;45100;46.926;7.452;2023-08-12T09:35:38;95735.91;;;22.02;91.00
59329;BME280;45100;46.926;7.452;2023-08-12T09:37:58;95723.47;;;21.95;91.19
59329;BME280;45100;46.926;7.452;2023-08-12T09:40:30;95727.34;;;21.85;90.84
59329;BME280;45100;46.926;7.452;2023-08-12T09:43:00;95752.30;;;21.73;91.03
59329;BME280;45100;46.926;7.452;2023-08-12T09:45:31;95755.30;;;21.63;92.77
59329;BME280;45100;46.926;7.452;2023-08-12T09:48:01;95738.28;;;21.53;92.96
59329;BME280;45100;46.926;7.452;2023-08-12T09:50:31;95722.27;;;21.46;92.20
59329;BME280;45100;46.926;7.452;2023-08-12T09:53:01;95718.32;;;21.41;92.53
59329;BME280;45100;46.926;7.452;2023-08-12T09:55:32;95726.34;;;21.37;92.44
59329;BME280;45100;46.926;7.452;2023-08-12T10:00:37;95731.36;;;21.39;94.38
59329;BME280;45100;46.926;7.452;2023-08-12T10:03:08;95731.45;;;21.43;94.18
59329;BME280;45100;46.926;7.452;2023-08-12T10:05:37;95724.36;;;21.46;94.30
59329;BME280;45100;46.926;7.452;2023-08-12T10:08:08;95717.64;;;21.49;94.51
59329;BME280;45100;46.926;7.452;2023-08-12T10:13:13;95721.78;;;21.66;95.34
59329;BME280;45100;46.926;7.452;2023-08-12T10:15:42;95717.45;;;21.78;95.26
59329;BME280;45100;46.926;7.452;2023-08-12T10:18:13;95717.55;;;21.96;95.18
59329;BME280;45100;46.926;7.452;2023-08-12T10:20:44;95724.84;;;22.15;94.23
59329;BME280;45100;46.926;7.452;2023-08-12T10:23:16;95726.06;;;22.33;92.14
59329;BME280;45100;46.926;7.452;2023-08-12T10:25:44;95719.08;;;22.47;90.98
59329;BME280;45100;46.926;7.452;2023-08-12T10:28:18;95717.09;;;22.64;90.62
59329;BME280;45100;46.926;7.452;2023-08-12T10:30:46;95713.87;;;22.81;90.25
59329;BME280;45100;46.926;7.452;2023-08-12T10:33:19;95706.56;;;23.01;90.63
59329;BME280;45100;46.926;7.452;2023-08-12T10:35:48;95691.47;;;23.19;89.26
59329;BME280;45100;46.926;7.452;2023-08-12T10:38:19;95690.50;;;23.31;89.17
59329;BME280;45100;46.926;7.452;2023-08-12T10:40:48;95681.49;;;23.35;86.51
59329;BME280;45100;46.926;7.452;2023-08-12T10:43:19;95682.92;;;23.34;85.99
59329;BME280;45100;46.926;7.452;2023-08-12T10:45:54;95686.44;;;23.38;88.14
59329;BME280;45100;46.926;7.452;2023-08-12T10:48:23;95687.52;;;23.49;90.05
59329;BME280;45100;46.926;7.452;2023-08-12T10:50:54;95685.61;;;23.63;90.35
59329;BME280;45100;46.926;7.452;2023-08-12T10:53:23;95683.66;;;23.82;91.27
59329;BME280;45100;46.926;7.452;2023-08-12T10:55:57;95682.59;;;24.02;91.68
59329;BME280;45100;46.926;7.452;2023-08-12T10:58:48;95683.00;;;24.23;90.71
59329;BME280;45100;46.926;7.452;2023-08-12T11:00:54;95680.73;;;24.39;87.71
59329;BME280;45100;46.926;7.452;2023-08-12T11:03:23;95681.05;;;24.51;84.63
59329;BME280;45100;46.926;7.452;2023-08-12T11:05:59;95674.25;;;24.59;86.50
59329;BME280;45100;46.926;7.452;2023-08-12T11:08:25;95666.12;;;24.66;87.27
59329;BME280;45100;46.926;7.452;2023-08-12T11:10:55;95660.67;;;24.72;84.28
59329;BME280;45100;46.926;7.452;2023-08-12T11:13:27;95655.17;;;24.80;83.41
59329;BME280;45100;46.926;7.452;2023-08-12T11:16:06;95655.96;;;24.87;83.23
59329;BME280;45100;46.926;7.452;2023-08-12T11:18:26;95660.63;;;24.94;82.82
59329;BME280;45100;46.926;7.452;2023-08-12T11:20:55;95658.20;;;25.04;82.83
59329;BME280;45100;46.926;7.452;2023-08-12T11:23:27;95658.73;;;25.15;80.93
59329;BME280;45100;46.926;7.452;2023-08-12T11:28:31;95651.98;;;25.42;79.70
59329;BME280;45100;46.926;7.452;2023-08-12T11:31:00;95648.70;;;25.49;74.34
59329;BME280;45100;46.926;7.452;2023-08-12T11:33:32;95653.62;;;25.54;72.62
59329;BME280;45100;46.926;7.452;2023-08-12T11:36:02;95645.89;;;25.55;75.14
59329;BME280;45100;46.926;7.452;2023-08-12T11:38:32;95647.29;;;25.59;77.96
59329;BME280;45100;46.926;7.452;2023-08-12T11:41:06;95639.92;;;25.70;82.39
59329;BME280;45100;46.926;7.452;2023-08-12T11:43:34;95629.59;;;25.81;75.56
59329;BME280;45100;46.926;7.452;2023-08-12T11:46:04;95632.73;;;25.90;74.24
59329;BME280;45100;46.926;7.452;2023-08-12T11:48:35;95630.53;;;25.94;74.99
59329;BME280;45100;46.926;7.452;2023-08-12T11:51:06;95632.62;;;25.96;75.38
59329;BME280;45100;46.926;7.452;2023-08-12T11:53:38;95634.09;;;26.02;78.55
59329;BME280;45100;46.926;7.452;2023-08-12T11:56:08;95631.36;;;26.10;78.54
59329;BME280;45100;46.926;7.452;2023-08-12T11:58:38;95629.42;;;26.18;74.89
59329;BME280;45100;46.926;7.452;2023-08-12T12:01:09;95622.61;;;26.21;72.04
59329;BME280;45100;46.926;7.452;2023-08-12T12:03:38;95621.81;;;26.18;71.27
59329;BME280;45100;46.926;7.452;2023-08-12T12:06:09;95627.06;;;26.16;73.10
59329;BME280;45100;46.926;7.452;2023-08-12T12:08:40;95613.70;;;26.16;72.81
59329;BME280;45100;46.926;7.452;2023-08-12T12:11:10;95608.09;;;26.23;73.92
59329;BME280;45100;46.926;7.452;2023-08-12T12:13:40;95598.89;;;26.30;73.17
59329;BME280;45100;46.926;7.452;2023-08-12T12:16:10;95597.06;;;26.34;70.95
59329;BME280;45100;46.926;7.452;2023-08-12T12:18:41;95600.76;;;26.34;69.69
59329;BME280;45100;46.926;7.452;2023-08-12T12:21:20;95587.51;;;26.28;72.02
59329;BME280;45100;46.926;7.452;2023-08-12T12:23:43;95590.30;;;26.26;71.80
59329;BME280;45100;46.926;7.452;2023-08-12T12:26:13;95588.08;;;26.28;69.38
59329;BME280;45100;46.926;7.452;2023-08-12T12:28:44;95584.66;;;26.31;72.79
59329;BME280;45100;46.926;7.452;2023-08-12T12:31:15;95580.89;;;26.41;73.96
59329;BME280;45100;46.926;7.452;2023-08-12T12:33:46;95579.80;;;26.52;73.72
59329;BME280;45100;46.926;7.452;2023-08-12T12:36:17;95577.89;;;26.64;73.52
59329;BME280;45100;46.926;7.452;2023-08-12T12:38:47;95583.73;;;26.77;71.90
59329;BME280;45100;46.926;7.452;2023-08-12T12:41:18;95585.85;;;26.88;67.94
59329;BME280;45100;46.926;7.452;2023-08-12T12:43:49;95581.11;;;26.99;67.92
59329;BME280;45100;46.926;7.452;2023-08-12T12:46:20;95579.77;;;27.07;70.30
59329;BME280;45100;46.926;7.452;2023-08-12T12:48:50;95577.73;;;27.18;68.90
59329;BME280;45100;46.926;7.452;2023-08-12T12:51:21;95578.06;;;27.33;67.93
59329;BME280;45100;46.926;7.452;2023-08-12T12:53:51;95577.97;;;27.47;69.60
59329;BME280;45100;46.926;7.452;2023-08-12T12:56:22;95575.75;;;27.58;68.33
59329;BME280;45100;46.926;7.452;2023-08-12T12:58:53;95576.86;;;27.69;63.90
59329;BME280;45100;46.926;7.452;2023-08-12T13:01:24;95572.30;;;27.80;65.25
59329;BME280;45100;46.926;7.452;2023-08-12T13:03:54;95577.35;;;27.89;66.07
59329;BME280;45100;46.926;7.452;2023-08-12T13:06:25;95571.58;;;27.96;62.12
59329;BME280;45100;46.926;7.452;2023-08-12T13:08:56;95569.02;;;28.03;64.26
59329;BME280;45100;46.926;7.452;2023-08-12T13:11:28;95567.45;;;28.07;60.47
59329;BME280;45100;46.926;7.452;2023-08-12T13:13:57;95566.08;;;28.12;63.17
59329;BME280;45100;46.926;7.452;2023-08-12T13:16:28;95569.58;;;28.21;63.01
59329;BME280;45100;46.926;7.452;2023-08-12T13:19:00;95561.48;;;28.29;61.42
59329;BME280;45100;46.926;7.452;2023-08-12T13:24:05;95558.84;;;28.49;60.99
59329;BME280;45100;46.926;7.452;2023-08-12T13:29:05;95560.58;;;28.50;60.93
59329;BME280;45100;46.926;7.452;2023-08-12T13:31:36;95560.48;;;28.56;61.91
59329;BME280;45100;46.926;7.452;2023-08-12T13:34:07;95557.63;;;28.59;60.21
59329;BME280;45100;46.926;7.452;2023-08-12T13:39:11;95555.55;;;28.52;60.94
59329;BME280;45100;46.926;7.452;2023-08-12T13:41:44;95554.23;;;28.47;61.61